Time;durP1;ratioP1;P1;durP2;ratioP2;P2;SDS_P1;SDS_P2;PMS_P1;PMS_P2;Temp;Humidity;BMP_temperature;BMP_pressure;BME280_temperature;BME280_humidity;BME280_pressure;Samples;Min_cycle;Max_cycle;Signal;HPM_P1;HPM_P2
2023/04/14 00:00:33;;;;;;;4.40;1.20;;;7.20;94.80;;;;;;5076322;28;20404;-90
2023/04/14 00:03:02;;;;;;;2.35;1.08;;;7.20;94.80;;;;;;5084612;27;20488;-90
2023/04/14 00:05:28;;;;;;;7.70;1.48;;;7.10;95.10;;;;;;5079669;27;20079;-90
2023/04/14 00:07:54;;;;;;;5.15;1.40;;;7.10;95.60;;;;;;5095893;27;20046;-90
2023/04/14 00:10:20;;;;;;;5.18;1.48;;;7.10;95.80;;;;;;5095266;27;20035;-90
2023/04/14 00:12:47;;;;;;;3.33;1.20;;;7.10;95.90;;;;;;5095361;27;20043;-90
2023/04/14 00:15:13;;;;;;;6.68;1.58;;;7.10;95.70;;;;;;5089719;28;20100;-91
2023/04/14 00:17:38;;;;;;;4.28;1.30;;;7.00;95.60;;;;;;5075981;28;20621;-90
2023/04/14 00:20:04;;;;;;;3.75;1.48;;;7.00;95.70;;;;;;5092638;28;20073;-91
2023/04/14 00:22:30;;;;;;;5.28;1.40;;;7.00;95.70;;;;;;5095960;27;20500;-90
2023/04/14 00:24:56;;;;;;;5.13;1.60;;;7.00;95.70;;;;;;5113550;27;20039;-90
2023/04/14 00:27:21;;;;;;;3.47;1.23;;;6.90;95.80;;;;;;5095964;27;20035;-91
2023/04/14 00:29:47;;;;;;;4.20;1.25;;;6.90;96.10;;;;;;5095338;27;20127;-91
2023/04/14 00:32:13;;;;;;;4.72;1.40;;;6.90;96.10;;;;;;5113504;28;20032;-91
2023/04/14 00:34:38;;;;;;;3.75;1.10;;;6.90;96.20;;;;;;5094814;28;20039;-92
2023/04/14 00:37:04;;;;;;;4.07;1.10;;;6.80;96.80;;;;;;5096932;28;20035;-90
2023/04/14 00:39:30;;;;;;;3.47;1.17;;;6.70;98.00;;;;;;5095071;28;20477;-90
2023/04/14 00:41:56;;;;;;;4.40;1.33;;;6.80;97.90;;;;;;5112541;28;20478;-90
2023/04/14 00:44:22;;;;;;;5.00;1.42;;;6.70;97.90;;;;;;5113096;28;20448;-90
2023/04/14 00:46:47;;;;;;;3.80;1.35;;;6.70;97.90;;;;;;5094578;28;20081;-90
2023/04/14 00:49:14;;;;;;;6.45;1.50;;;6.70;97.90;;;;;;5113247;28;20074;-90
2023/04/14 00:51:40;;;;;;;5.25;1.40;;;6.70;97.80;;;;;;5094731;28;20438;-90
2023/04/14 00:54:06;;;;;;;6.53;1.45;;;6.70;97.90;;;;;;5097080;27;20200;-89
2023/04/14 00:56:32;;;;;;;4.57;1.77;;;6.70;97.90;;;;;;5098831;27;20053;-90
2023/04/14 00:59:01;;;;;;;5.97;1.90;;;6.70;97.90;;;;;;5099824;27;20127;-90
2023/04/14 01:01:32;;;;;;;5.60;1.83;;;6.80;97.90;;;;;;5099680;27;20144;-91
2023/04/14 01:03:58;;;;;;;5.65;1.48;;;6.80;98.10;;;;;;5098916;27;20067;-91
2023/04/14 01:06:23;;;;;;;5.13;1.50;;;6.70;98.20;;;;;;5099976;27;20105;-90
2023/04/14 01:08:49;;;;;;;5.03;1.60;;;6.70;98.70;;;;;;5082167;28;20415;-90
2023/04/14 01:11:17;;;;;;;8.75;1.83;;;6.70;99.00;;;;;;5096313;28;20035;-90
2023/04/14 01:13:56;;;;;;;8.90;2.42;;;6.70;99.70;;;;;;5079027;28;20035;-90
2023/04/14 01:16:35;;;;;;;3.95;1.70;;;6.60;99.90;;;;;;5093828;27;20081;-91
2023/04/14 01:19:32;;;;;;;7.78;1.80;;;6.60;99.90;;;;;;5099447;27;20497;-90
2023/04/14 01:22:04;;;;;;;5.13;1.58;;;6.60;99.90;;;;;;5087691;28;20110;-91
2023/04/14 01:25:02;;;;;;;7.18;1.60;;;6.60;99.90;;;;;;5079243;28;20080;-90
2023/04/14 01:27:45;;;;;;;6.47;2.05;;;6.60;99.90;;;;;;5086424;27;20039;-91
2023/04/14 01:30:31;;;;;;;;;;;6.60;99.90;;;;;;5079771;28;20535;-90
2023/04/14 01:33:02;;;;;;;5.18;1.70;;;6.60;99.90;;;;;;5083761;27;19919;-91
2023/04/14 01:35:36;;;;;;;9.63;2.42;;;6.70;99.90;;;;;;5099253;27;20758;-91
2023/04/14 01:38:09;;;;;;;8.73;2.13;;;6.70;99.90;;;;;;5116163;27;20031;-90
2023/04/14 01:40:36;;;;;;;6.78;2.05;;;6.80;99.90;;;;;;5115052;27;20052;-90
2023/04/14 01:43:07;;;;;;;5.65;1.90;;;6.80;99.90;;;;;;5099138;27;20043;-90
2023/04/14 01:45:38;;;;;;;7.22;2.00;;;6.80;99.90;;;;;;5100074;28;20035;-90
2023/04/14 01:48:06;;;;;;;6.00;1.92;;;6.70;99.90;;;;;;5095630;28;20047;-90
2023/04/14 01:50:34;;;;;;;5.45;1.60;;;6.70;99.90;;;;;;5097215;27;20096;-90
2023/04/14 01:53:02;;;;;;;3.88;1.58;;;6.70;99.90;;;;;;5084416;28;20036;-90
2023/04/14 01:55:30;;;;;;;5.80;1.70;;;6.60;99.90;;;;;;5078950;28;20405;-90
2023/04/14 01:57:57;;;;;;;4.65;1.73;;;6.60;99.90;;;;;;5083437;27;20083;-90
2023/04/14 02:00:24;;;;;;;5.38;1.88;;;6.60;99.90;;;;;;5098533;27;20035;-90
2023/04/14 02:02:51;;;;;;;7.95;2.00;;;6.60;99.90;;;;;;5099391;27;20479;-90
2023/04/14 02:05:18;;;;;;;5.88;2.03;;;6.60;99.90;;;;;;5114327;28;20083;-90
2023/04/14 02:07:47;;;;;;;7.13;2.08;;;6.60;99.90;;;;;;5115565;27;20035;-90
2023/04/14 02:10:15;;;;;;;5.07;1.92;;;6.60;99.90;;;;;;5097964;27;20443;-90
2023/04/14 02:12:43;;;;;;;8.00;2.50;;;6.60;99.90;;;;;;5098677;27;20180;-90
2023/04/14 02:15:12;;;;;;;9.18;1.98;;;6.60;99.90;;;;;;5115127;27;20035;-90
2023/04/14 02:17:40;;;;;;;6.68;1.90;;;6.60;99.90;;;;;;5077829;28;20768;-90
2023/04/14 02:20:11;;;;;;;6.55;2.08;;;6.60;99.90;;;;;;5077894;28;20422;-90
2023/04/14 02:22:37;;;;;;;5.72;1.90;;;6.60;99.90;;;;;;5086430;28;20044;-90
2023/04/14 02:25:03;;;;;;;5.55;2.00;;;6.60;99.90;;;;;;5078499;28;20134;-90
2023/04/14 02:27:49;;;;;;;4.88;1.92;;;6.60;99.90;;;;;;5101637;27;20035;-90
2023/04/14 02:30:21;;;;;;;5.18;2.13;;;6.60;99.90;;;;;;5095359;28;20122;-92
2023/04/14 02:32:51;;;;;;;6.20;1.85;;;6.50;99.90;;;;;;5081071;27;20088;-91
2023/04/14 02:35:23;;;;;;;4.22;1.83;;;6.50;99.90;;;;;;5093594;27;20065;-91
2023/04/14 02:37:52;;;;;;;4.53;1.83;;;6.50;99.90;;;;;;5114909;27;20140;-91
2023/04/14 02:40:35;;;;;;;5.25;2.17;;;6.50;99.90;;;;;;5113775;27;20054;-92
2023/04/14 02:43:06;;;;;;;6.40;1.90;;;6.40;99.90;;;;;;5094817;28;20036;-92
2023/04/14 02:45:35;;;;;;;6.22;2.08;;;6.40;99.90;;;;;;5077515;28;20180;-91
2023/04/14 02:48:05;;;;;;;6.82;2.10;;;6.40;99.90;;;;;;5094371;28;20054;-91
2023/04/14 02:50:32;;;;;;;7.25;2.08;;;6.40;99.90;;;;;;5078092;28;20390;-91
2023/04/14 02:52:59;;;;;;;6.65;2.30;;;6.30;99.90;;;;;;5093818;27;20035;-91
2023/04/14 02:55:26;;;;;;;7.20;2.08;;;6.30;99.90;;;;;;5115456;27;20119;-91
2023/04/14 02:57:53;;;;;;;7.30;1.90;;;6.30;99.90;;;;;;5113152;27;20062;-91
2023/04/14 03:00:20;;;;;;;6.35;1.90;;;6.20;99.90;;;;;;5097428;27;20465;-91
2023/04/14 03:02:47;;;;;;;9.55;2.90;;;6.30;99.90;;;;;;5097431;27;20031;-91
2023/04/14 03:05:13;;;;;;;5.93;2.00;;;6.30;99.90;;;;;;5098135;28;20039;-91
2023/04/14 03:07:42;;;;;;;9.63;2.33;;;6.30;99.90;;;;;;5094533;28;20075;-90
2023/04/14 03:10:09;;;;;;;7.07;2.60;;;6.20;99.90;;;;;;5092679;27;20046;-90
2023/04/14 03:12:36;;;;;;;6.93;2.20;;;6.20;99.90;;;;;;5097748;27;20035;-90
2023/04/14 03:15:02;;;;;;;8.77;2.42;;;6.20;99.90;;;;;;5097583;27;20046;-90
2023/04/14 03:17:28;;;;;;;7.47;2.20;;;6.20;99.90;;;;;;5084785;28;20032;-90
2023/04/14 03:19:55;;;;;;;5.55;2.30;;;6.20;99.90;;;;;;5076380;28;20528;-90
2023/04/14 03:22:22;;;;;;;7.55;2.00;;;6.20;99.90;;;;;;5100068;27;20566;-90
2023/04/14 03:24:49;;;;;;;8.02;2.45;;;6.20;99.90;;;;;;5078418;28;20047;-90
2023/04/14 03:27:24;;;;;;;8.23;2.80;;;6.10;99.90;;;;;;5081178;27;20114;-90
2023/04/14 03:29:54;;;;;;;8.07;2.45;;;6.10;99.90;;;;;;5113700;27;20078;-90
2023/04/14 03:32:24;;;;;;;8.10;1.88;;;6.10;99.90;;;;;;5114691;27;20088;-91
2023/04/14 03:34:53;;;;;;;7.53;2.28;;;6.10;99.90;;;;;;5095881;27;20122;-90
2023/04/14 03:37:23;;;;;;;9.07;2.30;;;6.00;99.90;;;;;;5096770;27;20039;-91
2023/04/14 03:39:51;;;;;;;7.55;2.58;;;6.00;99.90;;;;;;5094684;27;20035;-90
2023/04/14 03:42:19;;;;;;;9.38;2.50;;;6.00;99.90;;;;;;5113882;27;20043;-90
2023/04/14 03:44:51;;;;;;;11.50;2.72;;;6.00;99.90;;;;;;5096297;27;20035;-90
2023/04/14 03:47:18;;;;;;;8.10;2.63;;;6.00;99.90;;;;;;5096251;27;20080;-91
2023/04/14 03:49:47;;;;;;;11.00;2.80;;;5.90;99.90;;;;;;5096419;27;20031;-91
2023/04/14 03:52:15;;;;;;;6.47;2.20;;;5.90;99.90;;;;;;5103887;28;20079;-91
2023/04/14 03:54:43;;;;;;;9.27;2.55;;;5.80;99.90;;;;;;5076179;28;20036;-91
2023/04/14 03:57:12;;;;;;;6.28;2.20;;;5.80;99.90;;;;;;5076454;28;20035;-90
2023/04/14 03:59:38;;;;;;;8.43;2.67;;;5.80;99.90;;;;;;5095811;27;20126;-90
2023/04/14 04:02:06;;;;;;;6.05;2.03;;;5.70;99.90;;;;;;5096382;27;20434;-90
2023/04/14 04:04:33;;;;;;;6.95;2.20;;;5.70;99.90;;;;;;5095643;27;20073;-90
2023/04/14 04:06:59;;;;;;;7.13;2.35;;;5.60;99.90;;;;;;5096533;27;20035;-91
2023/04/14 04:09:26;;;;;;;7.10;2.67;;;5.60;99.90;;;;;;5112697;27;20038;-91
2023/04/14 04:11:52;;;;;;;7.13;2.13;;;5.60;99.90;;;;;;5112966;27;20068;-90
2023/04/14 04:14:21;;;;;;;6.75;2.20;;;5.60;99.90;;;;;;5114139;27;20118;-90
2023/04/14 04:16:48;;;;;;;5.63;2.25;;;5.50;99.90;;;;;;5086499;28;20042;-90
2023/04/14 04:19:17;;;;;;;10.23;2.45;;;5.50;99.90;;;;;;5092882;28;20046;-90
2023/04/14 04:21:44;;;;;;;7.30;2.10;;;5.50;99.90;;;;;;5099227;27;20042;-90
2023/04/14 04:24:12;;;;;;;8.77;2.20;;;5.40;99.90;;;;;;5095939;27;20423;-90
2023/04/14 04:26:38;;;;;;;10.80;2.40;;;5.40;99.90;;;;;;5096356;27;20042;-90
2023/04/14 04:29:04;;;;;;;8.70;2.80;;;5.30;99.90;;;;;;5095514;27;20039;-90
2023/04/14 04:31:31;;;;;;;6.55;2.58;;;5.40;99.90;;;;;;5096540;27;20031;-91
2023/04/14 04:33:57;;;;;;;6.20;2.17;;;5.40;99.90;;;;;;5110542;28;20047;-91
2023/04/14 04:36:27;;;;;;;10.52;2.70;;;5.30;99.90;;;;;;5113359;28;20567;-90
2023/04/14 04:38:53;;;;;;;7.65;2.80;;;5.30;99.90;;;;;;5096367;28;20035;-90
2023/04/14 04:41:25;;;;;;;8.23;2.60;;;5.30;99.90;;;;;;5094914;28;20069;-90
2023/04/14 04:43:51;;;;;;;8.75;2.38;;;5.30;99.90;;;;;;5112669;28;20180;-90
2023/04/14 04:46:25;;;;;;;5.43;2.22;;;5.20;99.90;;;;;;5089331;28;20157;-90
2023/04/14 04:48:54;;;;;;;10.30;2.22;;;5.20;99.90;;;;;;5092275;28;20055;-90
2023/04/14 04:51:20;;;;;;;10.80;2.80;;;5.20;99.90;;;;;;5090342;28;20046;-90
2023/04/14 04:53:45;;;;;;;9.18;2.70;;;5.20;99.90;;;;;;5111981;28;20039;-91
2023/04/14 04:56:11;;;;;;;6.75;2.60;;;5.20;99.90;;;;;;5095173;28;20037;-90
2023/04/14 04:58:36;;;;;;;8.95;2.45;;;5.10;99.90;;;;;;5076262;28;20500;-91
2023/04/14 05:01:09;;;;;;;6.45;2.15;;;5.10;99.90;;;;;;5074608;28;20047;-90
2023/04/14 05:03:36;;;;;;;8.43;2.50;;;5.10;99.90;;;;;;5075127;28;20516;-91
2023/04/14 05:06:02;;;;;;;12.00;2.65;;;5.10;99.90;;;;;;5103638;28;20043;-90
2023/04/14 05:08:27;;;;;;;8.70;2.40;;;5.00;99.90;;;;;;5112514;28;20046;-90
2023/04/14 05:10:53;;;;;;;8.13;2.95;;;5.00;99.90;;;;;;5086984;28;20035;-91
2023/04/14 05:13:18;;;;;;;6.07;2.00;;;5.00;99.90;;;;;;5075306;28;20070;-90
2023/04/14 05:15:44;;;;;;;7.50;2.50;;;5.00;99.90;;;;;;5074801;28;20507;-90
2023/04/14 05:18:10;;;;;;;8.63;2.90;;;5.00;99.90;;;;;;5086152;28;20036;-90
2023/04/14 05:20:36;;;;;;;10.25;2.85;;;5.00;99.90;;;;;;5094941;28;20038;-91
2023/04/14 05:23:01;;;;;;;9.75;2.83;;;5.00;99.90;;;;;;5089351;28;20685;-91
2023/04/14 05:25:27;;;;;;;10.48;3.08;;;5.00;99.90;;;;;;5075045;28;20043;-90
2023/04/14 05:27:53;;;;;;;8.32;2.92;;;5.10;99.90;;;;;;5101237;28;20127;-89
2023/04/14 05:30:18;;;;;;;9.05;2.78;;;5.00;99.90;;;;;;5095017;28;20043;-90
2023/04/14 05:32:44;;;;;;;9.60;3.38;;;5.10;99.90;;;;;;5095827;28;20071;-90
2023/04/14 05:35:09;;;;;;;8.13;2.70;;;5.10;99.90;;;;;;5087974;28;20683;-91
2023/04/14 05:37:35;;;;;;;6.35;2.38;;;5.10;99.90;;;;;;5094744;28;20122;-91
2023/04/14 05:40:01;;;;;;;9.10;2.90;;;5.10;99.90;;;;;;5111869;27;20053;-90
2023/04/14 05:42:26;;;;;;;10.52;3.72;;;5.10;99.90;;;;;;5115663;27;20512;-91
2023/04/14 05:44:52;;;;;;;7.90;2.83;;;5.10;99.90;;;;;;5114654;27;20041;-91
2023/04/14 05:47:17;;;;;;;8.82;2.92;;;5.20;99.90;;;;;;5085111;28;20116;-91
2023/04/14 05:49:43;;;;;;;10.35;3.17;;;5.20;99.90;;;;;;5094791;28;20042;-91
2023/04/14 05:52:09;;;;;;;8.57;3.20;;;5.30;99.90;;;;;;5103826;28;20032;-90
2023/04/14 05:54:35;;;;;;;7.60;2.42;;;5.30;99.90;;;;;;5095120;28;20027;-90
2023/04/14 05:57:00;;;;;;;7.38;2.85;;;5.30;99.90;;;;;;5083990;27;20471;-90
2023/04/14 05:59:26;;;;;;;8.23;3.00;;;5.30;99.90;;;;;;5097138;27;20461;-91
2023/04/14 06:01:52;;;;;;;7.53;2.58;;;5.30;99.90;;;;;;5097842;27;20122;-90
2023/04/14 06:04:18;;;;;;;10.15;3.13;;;5.40;99.90;;;;;;5097142;27;20122;-91
2023/04/14 06:06:44;;;;;;;7.32;3.03;;;5.40;99.90;;;;;;5098214;27;20488;-91
2023/04/14 06:09:09;;;;;;;7.70;2.60;;;5.40;99.90;;;;;;5114147;27;20557;-89
2023/04/14 06:11:36;;;;;;;6.05;2.30;;;5.40;99.90;;;;;;5098155;27;20068;-90
2023/04/14 06:14:04;;;;;;;7.72;2.17;;;5.40;99.90;;;;;;5110259;27;20491;-90
2023/04/14 06:16:29;;;;;;;6.65;2.30;;;5.40;99.90;;;;;;5095148;27;20070;-90
2023/04/14 06:18:55;;;;;;;7.70;2.83;;;5.40;99.90;;;;;;5115353;27;20468;-90
2023/04/14 06:21:21;;;;;;;6.85;2.40;;;5.40;99.90;;;;;;5097141;27;20078;-91
2023/04/14 06:23:46;;;;;;;6.68;2.70;;;5.40;99.90;;;;;;5095018;28;20420;-90
2023/04/14 06:26:12;;;;;;;7.55;3.13;;;5.50;99.90;;;;;;5080684;27;20040;-91
2023/04/14 06:28:38;;;;;;;9.02;3.50;;;5.50;99.90;;;;;;5097510;27;20412;-90
2023/04/14 06:31:04;;;;;;;11.63;3.92;;;5.60;99.90;;;;;;5098232;27;20046;-90
2023/04/14 06:33:30;;;;;;;9.27;3.75;;;5.70;99.90;;;;;;5094922;27;20027;-91
2023/04/14 06:35:56;;;;;;;11.32;3.88;;;5.80;99.90;;;;;;5097410;27;20512;-91
2023/04/14 06:38:23;;;;;;;10.10;3.70;;;6.00;99.90;;;;;;5097913;27;20039;-91
2023/04/14 06:40:50;;;;;;;8.75;3.35;;;6.10;99.90;;;;;;5086710;28;20152;-91
2023/04/14 06:43:16;;;;;;;10.88;4.03;;;6.20;99.90;;;;;;5094492;28;20122;-91
2023/04/14 06:45:42;;;;;;;12.15;3.70;;;6.30;99.90;;;;;;5080119;27;20042;-91
2023/04/14 06:48:08;;;;;;;11.02;3.90;;;6.40;99.90;;;;;;5097724;27;20039;-91
2023/04/14 06:50:33;;;;;;;11.23;2.92;;;6.50;99.90;;;;;;5098101;27;20067;-91
2023/04/14 06:52:59;;;;;;;8.82;2.92;;;6.60;99.90;;;;;;5092059;27;20496;-91
2023/04/14 06:55:25;;;;;;;9.57;3.33;;;6.60;99.90;;;;;;5097658;27;20035;-91
2023/04/14 06:57:50;;;;;;;13.20;3.55;;;6.70;99.90;;;;;;5097290;27;20073;-90
2023/04/14 07:00:16;;;;;;;11.57;3.85;;;6.80;99.90;;;;;;5096135;27;20088;-92
2023/04/14 07:02:42;;;;;;;9.05;2.90;;;6.90;99.90;;;;;;5097067;27;20035;-92
2023/04/14 07:05:18;;;;;;;9.02;3.05;;;6.90;99.90;;;;;;5114139;27;20427;-91
2023/04/14 07:07:49;;;;;;;9.68;3.42;;;7.00;99.90;;;;;;5115448;27;20054;-92
2023/04/14 07:10:15;;;;;;;8.88;3.00;;;7.10;99.90;;;;;;5109350;28;20385;-92
2023/04/14 07:12:41;;;;;;;8.07;3.30;;;7.20;99.90;;;;;;5094492;28;20034;-91
2023/04/14 07:15:07;;;;;;;14.07;3.40;;;7.20;99.90;;;;;;5077427;28;20431;-91
2023/04/14 07:17:38;;;;;;;10.32;3.25;;;7.40;99.90;;;;;;5092205;27;20066;-91
2023/04/14 07:20:05;;;;;;;7.05;2.50;;;7.40;99.90;;;;;;5096690;27;20051;-92
2023/04/14 07:22:35;;;;;;;11.70;3.35;;;7.50;99.90;;;;;;5089759;27;20070;-92
2023/04/14 07:25:01;;;;;;;6.72;2.50;;;7.60;99.90;;;;;;5098142;27;20039;-91
2023/04/14 07:27:27;;;;;;;9.18;2.88;;;7.70;99.90;;;;;;5097511;27;20058;-92
2023/04/14 07:31:14;;;;;;;10.07;2.70;;;7.70;99.90;;;;;;5084658;28;20058;-91
2023/04/14 07:34:18;;;;;;;9.48;3.00;;;7.90;99.90;;;;;;5111305;28;20039;-92
2023/04/14 07:36:48;;;;;;;11.05;3.30;;;8.00;99.90;;;;;;5077854;28;20063;-91
2023/04/14 07:39:30;;;;;;;9.27;3.85;;;8.00;99.90;;;;;;5076952;28;20039;-91
2023/04/14 07:42:31;;;;;;;12.68;3.38;;;8.20;99.90;;;;;;5095156;27;20054;-91
2023/04/14 07:45:02;;;;;;;;;;;8.30;99.90;;;;;;5098799;27;20039;-92
2023/04/14 07:47:58;;;;;;;10.27;3.38;;;8.50;99.90;;;;;;5097965;27;19934;-92
2023/04/14 07:51:45;;;;;;;;;;;;;;;;;;;;;
2023/04/14 07:54:27;;;;;;;6.80;3.10;;;8.80;99.90;;;;;;5025543;28;20056;-92
2023/04/14 07:57:16;;;;;;;9.82;2.97;;;8.90;99.90;;;;;;4991955;28;20514;-93
2023/04/14 07:59:44;;;;;;;8.52;3.15;;;9.10;99.90;;;;;;5041447;28;20052;-93
2023/04/14 08:02:10;;;;;;;7.13;2.55;;;9.20;99.90;;;;;;5033763;28;20036;-92
2023/04/14 08:04:36;;;;;;;8.70;2.42;;;9.30;99.90;;;;;;5008020;28;20582;-92
2023/04/14 08:07:02;;;;;;;9.63;2.95;;;9.50;99.90;;;;;;5012541;28;20043;-92
2023/04/14 08:09:27;;;;;;;9.20;2.90;;;9.60;99.90;;;;;;4997756;28;20044;-92
2023/04/14 08:11:53;;;;;;;10.23;2.75;;;9.70;99.90;;;;;;5021927;28;20459;-91
2023/04/14 08:14:19;;;;;;;10.43;2.92;;;9.80;99.90;;;;;;5013297;28;20048;-92
2023/04/14 08:16:46;;;;;;;15.65;4.43;;;9.90;99.90;;;;;;5039036;28;20047;-93
2023/04/14 08:19:12;;;;;;;8.48;2.53;;;10.00;99.90;;;;;;5013644;28;20041;-93
2023/04/14 08:21:37;;;;;;;11.20;3.03;;;10.20;99.90;;;;;;5047391;28;20044;-92
2023/04/14 08:24:03;;;;;;;9.82;2.47;;;10.30;99.90;;;;;;5031325;28;20099;-92
2023/04/14 08:26:29;;;;;;;8.82;2.28;;;10.50;99.90;;;;;;5030243;28;20649;-92
2023/04/14 08:28:55;;;;;;;9.50;2.65;;;10.50;99.90;;;;;;5002362;28;20044;-92
2023/04/14 08:31:24;;;;;;;8.57;2.20;;;10.60;99.90;;;;;;5078686;28;20040;-92
2023/04/14 08:33:51;;;;;;;11.20;1.95;;;10.70;99.90;;;;;;5090654;27;20054;-93
2023/04/14 08:36:18;;;;;;;12.02;2.10;;;10.90;99.90;;;;;;5119757;27;20035;-92
2023/04/14 08:38:44;;;;;;;9.65;1.98;;;11.00;99.90;;;;;;5120691;27;20065;-93
2023/04/14 08:41:12;;;;;;;9.60;2.20;;;11.10;99.90;;;;;;5095494;28;20039;-92
2023/04/14 08:43:37;;;;;;;11.15;2.22;;;11.20;99.90;;;;;;5096711;28;20050;-93
2023/04/14 08:46:03;;;;;;;7.97;2.20;;;11.30;99.90;;;;;;5094155;28;20035;-92
2023/04/14 08:48:30;;;;;;;10.82;2.35;;;11.40;98.60;;;;;;5096179;28;20560;-92
2023/04/14 08:51:08;;;;;;;9.73;1.92;;;11.50;97.30;;;;;;5096269;28;20039;-92
2023/04/14 08:53:41;;;;;;;9.35;2.60;;;11.60;95.70;;;;;;5096019;28;20488;-93
2023/04/14 08:56:08;;;;;;;;;;;11.70;95.90;;;;;;5096761;28;20031;-92
2023/04/14 08:58:34;;;;;;;10.15;2.15;;;11.70;91.70;;;;;;5090185;28;20295;-92
2023/04/14 09:01:00;;;;;;;10.57;2.22;;;11.80;94.20;;;;;;5075393;28;20047;-92
2023/04/14 09:03:26;;;;;;;12.50;2.33;;;11.90;94.30;;;;;;5103359;28;20035;-91
2023/04/14 09:05:52;;;;;;;10.60;2.00;;;12.00;93.20;;;;;;5095782;28;20047;-92
2023/04/14 09:08:19;;;;;;;12.32;2.08;;;12.10;91.70;;;;;;5131108;28;20496;-93
2023/04/14 09:10:45;;;;;;;13.15;2.55;;;12.20;91.20;;;;;;5111735;28;20042;-93
2023/04/14 09:13:14;;;;;;;10.38;2.97;;;12.30;91.10;;;;;;5096331;28;20408;-92
2023/04/14 09:15:39;;;;;;;7.80;2.22;;;12.40;91.20;;;;;;5092348;28;20114;-92
2023/04/14 09:18:05;;;;;;;11.50;2.38;;;12.50;90.60;;;;;;5087416;27;20127;-92
2023/04/14 09:20:32;;;;;;;13.27;2.58;;;12.60;87.70;;;;;;5116511;27;20095;-91
2023/04/14 09:22:58;;;;;;;10.30;2.30;;;12.70;88.00;;;;;;5098899;27;20049;-92
2023/04/14 09:25:24;;;;;;;13.30;3.05;;;12.80;86.80;;;;;;5114871;27;20122;-92
2023/04/14 09:27:50;;;;;;;9.60;2.35;;;12.90;86.40;;;;;;5101918;28;20059;-92
2023/04/14 09:30:19;;;;;;;11.40;2.92;;;13.00;86.40;;;;;;5079502;28;20039;-92
2023/04/14 09:32:45;;;;;;;12.57;3.30;;;13.10;83.70;;;;;;5086647;27;20042;-92
2023/04/14 09:35:13;;;;;;;11.02;2.17;;;13.30;82.10;;;;;;5119766;27;20039;-92
2023/04/14 09:37:43;;;;;;;8.98;2.25;;;13.40;81.60;;;;;;5102140;27;20035;-92
2023/04/14 09:40:10;;;;;;;11.43;2.97;;;13.50;81.60;;;;;;5116385;27;20035;-91
2023/04/14 09:42:38;;;;;;;12.75;2.75;;;13.50;81.70;;;;;;5127542;27;20035;-92
2023/04/14 09:45:05;;;;;;;10.77;2.45;;;13.70;81.00;;;;;;5104249;27;20035;-92
2023/04/14 09:47:31;;;;;;;12.60;2.95;;;13.70;79.40;;;;;;5083488;27;20403;-93
2023/04/14 09:50:02;;;;;;;10.40;2.67;;;13.80;79.80;;;;;;5089261;27;20031;-92
2023/04/14 09:52:43;;;;;;;8.10;2.28;;;13.90;78.60;;;;;;5137733;27;20058;-93
2023/04/14 09:55:11;;;;;;;13.20;3.80;;;14.00;77.70;;;;;;5129484;27;20047;-92
2023/04/14 09:57:40;;;;;;;10.88;3.33;;;14.10;75.40;;;;;;5097741;27;20039;-91
2023/04/14 10:00:15;;;;;;;12.43;2.67;;;14.20;73.50;;;;;;5114211;27;20609;-92
2023/04/14 10:02:49;;;;;;;10.77;2.95;;;14.20;74.60;;;;;;5095280;27;20054;-92
2023/04/14 10:05:14;;;;;;;13.18;3.53;;;14.30;74.20;;;;;;5097592;27;20515;-92
2023/04/14 10:07:41;;;;;;;14.20;3.17;;;14.40;72.30;;;;;;5129571;27;20035;-91
2023/04/14 10:10:10;;;;;;;8.65;2.60;;;14.60;71.50;;;;;;5112369;27;20024;-91
2023/04/14 10:12:36;;;;;;;11.68;3.70;;;14.60;68.70;;;;;;5094330;28;20039;-92
2023/04/14 10:15:02;;;;;;;7.93;2.28;;;14.50;69.10;;;;;;5086828;27;20042;-92
2023/04/14 10:17:28;;;;;;;9.85;2.55;;;14.50;70.80;;;;;;5116333;27;20122;-92
2023/04/14 10:19:54;;;;;;;10.32;2.92;;;14.50;71.60;;;;;;5115193;27;20117;-92
2023/04/14 10:22:21;;;;;;;11.48;3.70;;;14.50;70.60;;;;;;5131222;27;20035;-91
2023/04/14 10:24:48;;;;;;;11.48;2.80;;;14.60;70.20;;;;;;5115895;27;20101;-91
2023/04/14 10:27:15;;;;;;;11.00;2.92;;;14.50;70.00;;;;;;5077744;28;20039;-92
2023/04/14 10:29:41;;;;;;;9.52;3.03;;;14.60;70.20;;;;;;5095264;28;20050;-92
2023/04/14 10:32:12;;;;;;;10.05;2.55;;;14.60;68.70;;;;;;5100956;27;20043;-92
2023/04/14 10:34:51;;;;;;;10.10;3.03;;;14.70;68.70;;;;;;5134114;27;20199;-92
2023/04/14 10:37:17;;;;;;;11.13;2.92;;;14.80;67.10;;;;;;5115844;27;20062;-91
2023/04/14 10:39:56;;;;;;;11.80;2.20;;;14.80;66.60;;;;;;5119507;27;20490;-93
2023/04/14 10:42:23;;;;;;;11.45;2.97;;;14.80;67.70;;;;;;5112491;27;20088;-92
2023/04/14 10:45:05;;;;;;;11.35;3.20;;;14.90;66.10;;;;;;5118305;27;20049;-92
2023/04/14 10:47:31;;;;;;;9.90;1.90;;;14.90;64.90;;;;;;5098868;27;20086;-92
2023/04/14 10:49:57;;;;;;;10.73;3.03;;;15.10;67.40;;;;;;5097957;27;20552;-92
2023/04/14 10:52:24;;;;;;;10.00;3.28;;;15.30;67.60;;;;;;5085741;28;20062;-93
2023/04/14 10:55:06;;;;;;;10.95;2.30;;;15.40;66.50;;;;;;5095237;28;20035;-93
2023/04/14 10:57:37;;;;;;;9.60;2.53;;;15.50;67.00;;;;;;5085515;27;20027;-92
2023/04/14 11:00:19;;;;;;;10.70;2.72;;;15.60;67.20;;;;;;5115109;27;20043;-93
2023/04/14 11:03:01;;;;;;;10.77;2.30;;;15.90;65.60;;;;;;5109175;28;20450;-93
2023/04/14 11:05:27;;;;;;;9.32;2.67;;;16.00;65.70;;;;;;5077767;28;20123;-94
2023/04/14 11:07:55;;;;;;;9.68;3.05;;;16.20;64.80;;;;;;5083067;27;20114;-94
2023/04/14 11:10:20;;;;;;;10.13;2.88;;;16.40;64.00;;;;;;5097570;27;20652;-93
2023/04/14 11:12:52;;;;;;;11.50;3.08;;;16.20;61.40;;;;;;5105501;27;20122;-94
2023/04/14 11:15:18;;;;;;;12.07;2.95;;;16.10;61.70;;;;;;5104054;27;20036;-94
2023/04/14 11:17:44;;;;;;;12.18;3.10;;;16.00;61.10;;;;;;5125209;27;20034;-93
2023/04/14 11:20:16;;;;;;;11.75;3.13;;;16.00;61.00;;;;;;5121439;27;20035;-92
2023/04/14 11:22:44;;;;;;;10.60;2.28;;;16.00;62.70;;;;;;5093451;28;20067;-93
2023/04/14 11:25:20;;;;;;;10.30;2.72;;;16.20;63.80;;;;;;5077319;28;20088;-93
2023/04/14 11:27:49;;;;;;;9.98;3.00;;;16.40;63.80;;;;;;5103268;28;20036;-94
2023/04/14 11:30:17;;;;;;;9.60;3.13;;;16.70;63.40;;;;;;5104986;27;20039;-94
2023/04/14 11:32:56;;;;;;;9.25;2.88;;;16.90;61.40;;;;;;5097685;27;20031;-95
2023/04/14 11:35:24;;;;;;;11.32;3.08;;;17.00;61.60;;;;;;5095614;27;20035;-93
2023/04/14 11:37:58;;;;;;;10.65;3.33;;;17.10;60.90;;;;;;5096662;27;20078;-93
2023/04/14 11:40:26;;;;;;;9.70;2.75;;;17.20;58.90;;;;;;5077988;28;20031;-94
2023/04/14 11:42:56;;;;;;;8.65;2.65;;;17.10;59.00;;;;;;5076344;28;20485;-93
2023/04/14 11:45:29;;;;;;;8.90;3.22;;;17.20;60.50;;;;;;5087663;27;20039;-94
2023/04/14 11:48:03;;;;;;;11.30;2.97;;;17.30;57.30;;;;;;5097574;27;20031;-94
2023/04/14 11:50:31;;;;;;;11.00;3.17;;;17.30;57.10;;;;;;5113338;27;20043;-94
2023/04/14 11:53:01;;;;;;;9.32;3.10;;;17.30;57.60;;;;;;5093629;28;20031;-93
2023/04/14 11:55:28;;;;;;;9.70;3.00;;;17.30;56.60;;;;;;5116982;27;20027;-94
2023/04/14 11:57:54;;;;;;;10.32;3.40;;;17.40;58.00;;;;;;5113429;27;20042;-94
2023/04/14 12:00:20;;;;;;;10.25;3.30;;;17.70;58.80;;;;;;5121845;27;20042;-93
2023/04/14 12:02:46;;;;;;;10.38;3.15;;;18.00;59.00;;;;;;5119944;27;20038;-94
2023/04/14 12:05:17;;;;;;;10.80;2.92;;;17.90;57.40;;;;;;5108179;27;20042;-94
2023/04/14 12:07:44;;;;;;;9.73;3.00;;;17.60;57.40;;;;;;5102925;27;20046;-94
2023/04/14 12:10:11;;;;;;;11.23;3.05;;;17.80;60.10;;;;;;5105255;27;20047;-94
2023/04/14 12:12:36;;;;;;;9.23;2.70;;;18.10;60.10;;;;;;5108902;27;20031;-94
2023/04/14 12:15:04;;;;;;;10.40;3.28;;;18.30;57.20;;;;;;5117501;27;20038;-94
2023/04/14 12:17:30;;;;;;;10.45;3.10;;;18.30;57.10;;;;;;5107928;27;20037;-93
2023/04/14 12:19:56;;;;;;;10.88;3.45;;;18.40;57.30;;;;;;5106684;27;20039;-94
2023/04/14 12:22:26;;;;;;;11.95;3.10;;;18.50;57.40;;;;;;5096973;27;20042;-93
2023/04/14 12:24:52;;;;;;;11.77;3.60;;;18.70;57.20;;;;;;5105444;27;20035;-94
2023/04/14 12:27:21;;;;;;;10.30;3.10;;;18.80;57.40;;;;;;5101734;27;20129;-94
2023/04/14 12:29:48;;;;;;;11.93;3.53;;;19.00;56.70;;;;;;5124531;27;20095;-94
2023/04/14 12:32:14;;;;;;;11.27;3.33;;;19.10;56.20;;;;;;5115799;27;20042;-94
2023/04/14 12:34:40;;;;;;;11.25;3.50;;;18.90;54.40;;;;;;5103096;27;20035;-94
2023/04/14 12:37:10;;;;;;;9.82;3.35;;;18.80;54.20;;;;;;5105464;27;20500;-94
2023/04/14 12:39:58;;;;;;;9.80;3.17;;;18.70;54.80;;;;;;5102819;27;20035;-95
2023/04/14 12:42:41;;;;;;;10.30;2.90;;;18.70;54.70;;;;;;5118679;27;20049;-94
2023/04/14 12:45:08;;;;;;;10.45;3.08;;;18.70;53.70;;;;;;5091485;28;20043;-94
2023/04/14 12:47:34;;;;;;;10.10;3.13;;;18.50;53.00;;;;;;5092529;28;20035;-93
2023/04/14 12:50:20;;;;;;;10.10;3.20;;;18.30;53.60;;;;;;5097813;27;20453;-94
2023/04/14 12:52:46;;;;;;;10.45;2.97;;;18.30;54.60;;;;;;5115736;27;20073;-93
2023/04/14 12:55:20;;;;;;;11.15;3.10;;;18.40;54.20;;;;;;5102184;27;20077;-95
2023/04/14 12:57:45;;;;;;;10.35;2.83;;;18.60;53.40;;;;;;5101788;27;20049;-95
2023/04/14 13:00:12;;;;;;;12.00;3.10;;;18.70;53.50;;;;;;5088955;28;20126;-94